createdAt,value
2019-02-27T00:02:31.757Z,4.05
2019-02-27T00:05:33.551Z,4.00
2019-02-27T00:08:35.407Z,3.60
2019-02-27T00:11:36.851Z,4.05
2019-02-27T00:14:38.307Z,4.10
2019-02-27T00:17:39.892Z,3.42
2019-02-27T00:20:41.331Z,3.95
2019-02-27T00:23:42.831Z,3.75
2019-02-27T00:26:44.217Z,3.95
2019-02-27T00:29:45.643Z,4.10
2019-02-27T00:32:51.026Z,3.83
2019-02-27T00:35:50.938Z,4.10
2019-02-27T00:38:52.402Z,4.37
2019-02-27T00:41:53.911Z,3.70
2019-02-27T00:44:56.049Z,3.95
2019-02-27T00:47:57.549Z,3.83
2019-02-27T00:50:58.977Z,3.87
2019-02-27T00:54:00.400Z,4.12
2019-02-27T00:57:01.877Z,3.50
2019-02-27T01:00:06.275Z,3.90
2019-02-27T01:03:07.128Z,3.47
2019-02-27T01:06:08.977Z,3.70
2019-02-27T01:09:10.939Z,4.08
2019-02-27T01:12:13.731Z,4.17
2019-02-27T01:15:15.599Z,3.70
2019-02-27T01:18:17.008Z,3.77
2019-02-27T01:21:19.945Z,4.35
2019-02-27T01:24:21.482Z,3.95
2019-02-27T01:27:23.928Z,4.10
2019-02-27T01:30:25.393Z,3.52
2019-02-27T01:33:26.787Z,4.08
2019-02-27T01:36:28.181Z,4.22
2019-02-27T01:39:29.608Z,4.08
2019-02-27T01:42:32.854Z,3.70
2019-02-27T01:45:34.359Z,3.92
2019-02-27T01:48:35.865Z,3.58
2019-02-27T01:51:38.680Z,3.72
2019-02-27T01:54:40.467Z,3.27
2019-02-27T01:57:41.862Z,3.77
2019-02-27T02:00:43.335Z,3.55
2019-02-27T02:03:47.265Z,3.70
2019-02-27T02:06:48.033Z,3.45
2019-02-27T02:09:55.049Z,3.95
2019-02-27T02:13:15.169Z,3.95
2019-02-27T02:17:11.276Z,3.65
2019-02-27T02:21:01.817Z,3.42
2019-02-27T02:24:47.071Z,3.40
2019-02-27T02:28:40.991Z,3.75
2019-02-27T02:32:18.272Z,3.27
2019-02-27T02:36:11.221Z,3.98
2019-02-27T02:40:30.814Z,3.75
2019-02-27T02:44:34.484Z,3.58
2019-02-27T02:48:50.704Z,3.40
2019-02-27T02:52:31.613Z,4.00
2019-02-27T02:56:51.703Z,3.92
2019-02-27T03:00:47.909Z,3.98
2019-02-27T03:05:23.333Z,3.25
2019-02-27T03:09:22.074Z,3.40
2019-02-27T03:13:25.478Z,3.25
2019-02-27T03:17:18.426Z,3.52
2019-02-27T03:20:45.420Z,3.25
2019-02-27T03:24:36.300Z,3.47
2019-02-27T03:28:40.668Z,3.42
2019-02-27T03:32:06.897Z,3.65
2019-02-27T03:35:56.397Z,3.80
2019-02-27T03:39:34.334Z,3.67
2019-02-27T03:43:29.804Z,3.30
2019-02-27T03:47:52.965Z,3.08
2019-02-27T03:51:46.705Z,3.72
2019-02-27T03:55:32.845Z,3.47
2019-02-27T03:59:42.146Z,3.33
2019-02-27T04:03:33.953Z,3.65
2019-02-27T04:07:35.661Z,3.52
2019-02-27T04:10:37.053Z,3.20
2019-02-27T04:13:38.425Z,3.83
2019-02-27T04:16:39.877Z,3.58
2019-02-27T04:19:41.318Z,4.10
2019-02-27T04:22:42.705Z,3.50
2019-02-27T04:25:44.115Z,3.00
2019-02-27T04:28:45.450Z,3.22
2019-02-27T04:31:46.980Z,3.92
2019-02-27T04:34:48.720Z,3.75
2019-02-27T04:37:54.119Z,3.20
2019-02-27T04:40:53.860Z,3.22
2019-02-27T04:43:55.306Z,3.35
2019-02-27T04:46:56.683Z,3.55
2019-02-27T04:49:58.134Z,3.10
2019-02-27T04:52:59.586Z,3.05
2019-02-27T04:56:00.974Z,3.30
2019-02-27T04:59:02.339Z,3.47
2019-02-27T05:02:04.502Z,3.52
2019-02-27T05:05:08.598Z,3.65
2019-02-27T05:08:10.206Z,3.52
2019-02-27T05:11:13.943Z,3.02
2019-02-27T05:14:15.326Z,3.10
2019-02-27T05:17:21.193Z,3.58
2019-02-27T05:20:19.806Z,3.03
2019-02-27T05:23:21.270Z,2.90
2019-02-27T05:26:27.092Z,3.30
2019-02-27T05:29:26.069Z,3.27
2019-02-27T05:32:28.258Z,3.20
2019-02-27T05:35:30.766Z,3.33
2019-02-27T05:38:32.163Z,2.97
2019-02-27T05:41:33.774Z,3.12
2019-02-27T05:44:35.150Z,3.33
2019-02-27T05:47:36.683Z,3.20
2019-02-27T05:50:38.160Z,3.20
2019-02-27T05:53:39.501Z,3.57
2019-02-27T05:56:40.866Z,3.13
2019-02-27T05:59:42.300Z,3.27
2019-02-27T06:02:45.008Z,3.20
2019-02-27T06:05:49.634Z,3.35
2019-02-27T06:08:50.227Z,3.17
2019-02-27T06:11:51.586Z,3.80
2019-02-27T06:14:54.992Z,2.87
2019-02-27T06:17:56.704Z,3.50
2019-02-27T06:20:58.943Z,3.03
2019-02-27T06:24:00.510Z,3.33
2019-02-27T06:27:06.097Z,2.83
2019-02-27T06:30:05.946Z,3.47
2019-02-27T06:33:11.590Z,2.93
2019-02-27T06:36:11.516Z,3.37
2019-02-27T06:39:13.026Z,2.80
2019-02-27T06:42:14.535Z,3.20
2019-02-27T06:45:18.341Z,3.43
2019-02-27T06:48:19.738Z,3.40
2019-02-27T06:51:21.600Z,3.37
2019-02-27T06:54:22.957Z,3.30
2019-02-27T06:57:24.451Z,2.93
2019-02-27T07:00:25.946Z,3.40
2019-02-27T07:03:29.559Z,2.73
2019-02-27T07:06:30.587Z,3.00
2019-02-27T07:09:32.016Z,3.37
2019-02-27T07:12:33.401Z,3.17
2019-02-27T07:15:34.824Z,3.17
2019-02-27T07:18:36.533Z,2.87
2019-02-27T07:21:38.074Z,3.47
2019-02-27T07:24:39.863Z,2.77
2019-02-27T07:27:41.328Z,2.93
2019-02-27T07:30:43.277Z,3.47
2019-02-27T07:33:45.127Z,2.90
2019-02-27T07:36:46.588Z,3.05
2019-02-27T07:39:48.011Z,3.13
2019-02-27T07:42:49.394Z,3.17
2019-02-27T07:45:50.829Z,3.00
2019-02-27T07:48:56.451Z,2.90
2019-02-27T07:51:57.916Z,2.70
2019-02-27T07:54:58.884Z,3.10
2019-02-27T07:58:00.380Z,3.25
2019-02-27T08:01:01.919Z,2.70
2019-02-27T08:04:04.434Z,3.00
2019-02-27T08:07:05.842Z,2.90
2019-02-27T08:10:10.770Z,3.37
2019-02-27T08:13:12.158Z,3.40
2019-02-27T08:16:13.566Z,2.87
2019-02-27T08:19:15.136Z,2.87
2019-02-27T08:22:16.635Z,3.00
2019-02-27T08:25:18.115Z,3.05
2019-02-27T08:28:19.619Z,3.08
2019-02-27T08:31:21.068Z,2.90
2019-02-27T08:34:22.471Z,2.90
2019-02-27T08:37:23.986Z,3.45
2019-02-27T08:40:25.419Z,3.83
2019-02-27T08:43:26.853Z,3.67
2019-02-27T08:46:28.341Z,3.90
2019-02-27T08:49:31.808Z,4.70
2019-02-27T08:52:33.553Z,4.42
2019-02-27T08:55:39.057Z,4.05
2019-02-27T08:58:41.182Z,5.03
2019-02-27T09:01:43.927Z,4.25
2019-02-27T09:04:47.055Z,5.35
2019-02-27T09:07:50.446Z,4.35
2019-02-27T09:10:53.488Z,4.95
2019-02-27T09:14:01.959Z,4.97
2019-02-27T09:17:00.528Z,4.87
2019-02-27T09:20:02.225Z,5.20
2019-02-27T09:23:04.250Z,4.75
2019-02-27T09:26:05.756Z,4.97
2019-02-27T09:29:07.118Z,4.85
2019-02-27T09:32:11.402Z,5.15
2019-02-27T09:35:13.046Z,5.53
2019-02-27T09:38:14.696Z,5.33
2019-02-27T09:41:16.563Z,6.00
2019-02-27T09:44:18.348Z,5.40
2019-02-27T09:47:20.068Z,5.37
2019-02-27T09:50:34.879Z,5.17
2019-02-27T09:53:37.440Z,5.60
2019-02-27T09:56:39.170Z,5.20
2019-02-27T09:59:40.751Z,5.45
2019-02-27T10:02:43.192Z,5.65
2019-02-27T10:05:45.475Z,5.90
2019-02-27T10:08:46.995Z,5.55
2019-02-27T10:11:48.518Z,5.65
2019-02-27T10:14:50.274Z,5.85
2019-02-27T10:17:52.805Z,6.05
2019-02-27T10:20:54.292Z,5.97
2019-02-27T10:23:55.727Z,5.95
2019-02-27T10:26:57.159Z,6.03
2019-02-27T10:29:58.774Z,5.62
2019-02-27T10:33:00.233Z,5.55
2019-02-27T10:36:03.647Z,5.67
2019-02-27T10:39:06.588Z,6.12
2019-02-27T10:42:10.118Z,5.20
2019-02-27T10:45:14.903Z,4.85
2019-02-27T10:48:16.855Z,6.37
2019-02-27T10:51:18.515Z,6.33
2019-02-27T10:54:20.073Z,10.23
2019-02-27T10:57:23.205Z,13.03
2019-02-27T11:00:29.809Z,16.55
2019-02-27T11:03:31.628Z,19.25
2019-02-27T11:06:34.244Z,22.70
2019-02-27T11:09:41.207Z,26.73
2019-02-27T11:12:41.902Z,31.82
2019-02-27T11:15:44.817Z,32.53
2019-02-27T11:18:46.964Z,24.23
2019-02-27T11:21:49.641Z,18.50
2019-02-27T11:24:52.500Z,15.15
2019-02-27T11:27:55.892Z,17.02
2019-02-27T11:30:59.619Z,20.15
2019-02-27T11:34:01.246Z,25.05
2019-02-27T11:37:04.408Z,25.25
2019-02-27T11:40:07.887Z,21.87
2019-02-27T11:43:09.907Z,19.12
2019-02-27T11:46:11.860Z,20.55
2019-02-27T11:49:13.531Z,25.30
2019-02-27T11:52:15.010Z,22.35
2019-02-27T11:55:17.398Z,21.10
2019-02-27T11:58:19.475Z,25.80
2019-02-27T12:01:22.740Z,26.15
2019-02-27T12:04:24.342Z,24.70
2019-02-27T12:07:25.951Z,24.07
2019-02-27T12:10:30.702Z,27.10
2019-02-27T12:13:32.366Z,23.50
2019-02-27T12:16:35.532Z,29.02
2019-02-27T12:19:37.151Z,27.93
2019-02-27T12:22:38.731Z,22.60
2019-02-27T12:25:40.309Z,22.25
2019-02-27T12:28:42.050Z,21.48
2019-02-27T12:31:48.177Z,23.20
2019-02-27T12:34:48.352Z,24.43
2019-02-27T12:37:50.217Z,23.40
2019-02-27T12:40:52.903Z,21.17
2019-02-27T12:43:54.433Z,14.53
2019-02-27T12:46:56.147Z,13.20
2019-02-27T12:49:57.900Z,12.98
2019-02-27T12:53:01.332Z,12.43
2019-02-27T12:56:07.812Z,12.40
2019-02-27T12:59:08.985Z,12.13
2019-02-27T13:02:10.927Z,11.40
2019-02-27T13:05:14.200Z,10.68
2019-02-27T13:08:16.312Z,13.13
2019-02-27T13:11:22.825Z,13.98
2019-02-27T13:14:24.420Z,13.18
2019-02-27T13:17:26.206Z,13.55
2019-02-27T13:20:28.518Z,10.93
2019-02-27T13:23:30.048Z,12.28
2019-02-27T13:26:34.752Z,12.53
2019-02-27T13:29:35.251Z,12.28
2019-02-27T13:32:38.516Z,11.93
2019-02-27T13:35:40.329Z,11.90
2019-02-27T13:38:41.946Z,12.78
2019-02-27T13:41:45.543Z,12.95
2019-02-27T13:44:46.687Z,12.80
2019-02-27T13:47:48.260Z,12.80
2019-02-27T13:50:49.861Z,12.95
2019-02-27T13:53:51.372Z,12.30
2019-02-27T13:56:53.254Z,12.30
2019-02-27T13:59:55.829Z,13.30
2019-02-27T14:02:57.415Z,15.75
2019-02-27T14:05:59.008Z,12.40
2019-02-27T14:09:00.666Z,13.00
2019-02-27T14:12:03.861Z,14.75
2019-02-27T14:15:06.490Z,14.65
2019-02-27T14:18:08.983Z,14.35
2019-02-27T14:21:10.695Z,14.18
2019-02-27T14:24:12.251Z,14.53
2019-02-27T14:27:14.590Z,14.95
2019-02-27T14:30:24.481Z,14.00
2019-02-27T14:33:26.088Z,15.18
2019-02-27T14:36:27.580Z,14.75
2019-02-27T14:39:29.643Z,13.60
2019-02-27T14:42:33.525Z,14.53
2019-02-27T14:45:39.732Z,13.15
2019-02-27T14:48:39.150Z,12.63
2019-02-27T14:51:41.707Z,14.25
2019-02-27T14:54:43.366Z,13.45
2019-02-27T14:57:49.919Z,12.70
2019-02-27T15:00:48.446Z,13.68
2019-02-27T15:03:50.112Z,12.63
2019-02-27T15:06:51.885Z,13.62
2019-02-27T15:09:53.425Z,13.45
2019-02-27T15:12:55.663Z,11.95
2019-02-27T15:15:57.420Z,13.13
2019-02-27T15:18:59.705Z,13.70
2019-02-27T15:22:01.442Z,13.22
2019-02-27T15:25:07.917Z,13.28
2019-02-27T15:28:07.016Z,13.93
2019-02-27T15:31:09.145Z,12.73
2019-02-27T15:34:13.672Z,13.15
2019-02-27T15:37:15.602Z,14.07
2019-02-27T15:40:20.032Z,14.53
2019-02-27T15:43:21.887Z,13.53
2019-02-27T15:46:25.045Z,13.50
2019-02-27T15:49:26.624Z,13.58
2019-02-27T15:52:28.179Z,13.18
2019-02-27T15:55:34.180Z,12.80
2019-02-27T15:58:35.880Z,13.43
2019-02-27T16:01:38.504Z,13.90
2019-02-27T16:04:41.083Z,13.10
2019-02-27T16:07:48.474Z,13.03
2019-02-27T16:10:54.581Z,13.20
2019-02-27T16:13:52.184Z,13.25
2019-02-27T16:16:54.204Z,14.05
2019-02-27T16:19:57.244Z,13.62
2019-02-27T16:23:04.256Z,13.80
2019-02-27T16:26:03.730Z,13.65
2019-02-27T16:29:05.412Z,12.80
2019-02-27T16:32:07.016Z,13.68
2019-02-27T16:35:09.171Z,13.32
2019-02-27T16:38:13.043Z,12.55
2019-02-27T16:41:16.279Z,12.33
2019-02-27T16:44:21.672Z,11.65
2019-02-27T16:47:23.586Z,10.98
2019-02-27T16:50:27.369Z,13.10
2019-02-27T16:53:28.252Z,11.68
2019-02-27T16:56:29.739Z,9.43
2019-02-27T16:59:31.287Z,8.60
2019-02-27T17:02:35.477Z,8.15
2019-02-27T17:05:36.920Z,7.25
2019-02-27T17:08:38.828Z,7.83
2019-02-27T17:11:40.735Z,6.37
2019-02-27T17:14:43.286Z,6.72
2019-02-27T17:17:45.149Z,5.87
2019-02-27T17:20:47.359Z,5.33
2019-02-27T17:23:48.967Z,5.28
2019-02-27T17:26:50.472Z,5.25
2019-02-27T17:29:52.015Z,5.53
2019-02-27T17:32:54.593Z,5.20
2019-02-27T17:35:59.244Z,5.25
2019-02-27T17:38:59.905Z,5.10
2019-02-27T17:42:01.443Z,4.95
2019-02-27T17:45:02.955Z,5.12
2019-02-27T17:48:05.046Z,5.58
2019-02-27T17:51:06.742Z,5.03
2019-02-27T17:54:08.194Z,4.45
2019-02-27T17:57:09.706Z,4.62
2019-02-27T18:00:21.714Z,6.20
2019-02-27T18:03:24.965Z,4.67
2019-02-27T18:06:26.545Z,5.05
2019-02-27T18:09:28.106Z,4.97
2019-02-27T18:12:30.081Z,5.17
2019-02-27T18:15:31.666Z,5.12
2019-02-27T18:18:33.271Z,5.28
2019-02-27T18:21:35.099Z,5.40
2019-02-27T18:24:36.694Z,5.42
2019-02-27T18:27:38.254Z,5.00
2019-02-27T18:30:39.906Z,5.17
2019-02-27T18:33:41.936Z,5.28
2019-02-27T18:36:46.366Z,4.53
2019-02-27T18:39:59.960Z,5.40
2019-02-27T18:43:03.597Z,5.58
2019-02-27T18:46:06.091Z,5.03
2019-02-27T18:49:07.767Z,5.00
2019-02-27T18:52:09.522Z,5.08
2019-02-27T18:55:13.781Z,5.25
2019-02-27T18:58:18.243Z,4.78
2019-02-27T19:01:19.324Z,4.67
2019-02-27T19:04:21.117Z,4.87
2019-02-27T19:07:22.794Z,5.25
2019-02-27T19:10:24.969Z,4.78
2019-02-27T19:13:26.609Z,5.58
2019-02-27T19:16:28.380Z,4.87
2019-02-27T19:19:31.525Z,4.72
2019-02-27T19:22:33.577Z,5.08
2019-02-27T19:25:37.292Z,5.15
2019-02-27T19:28:38.470Z,5.10
2019-02-27T19:31:40.170Z,5.58
2019-02-27T19:34:44.451Z,5.85
2019-02-27T19:37:45.544Z,5.22
2019-02-27T19:40:47.207Z,5.58
2019-02-27T19:43:48.817Z,5.60
2019-02-27T19:46:50.685Z,5.65
2019-02-27T19:49:52.415Z,5.33
2019-02-27T19:52:54.537Z,5.47
2019-02-27T19:56:00.672Z,5.85
2019-02-27T19:58:59.740Z,5.03
2019-02-27T20:02:01.914Z,5.08
2019-02-27T20:05:03.888Z,5.20
2019-02-27T20:08:09.818Z,5.17
2019-02-27T20:11:09.704Z,5.35
2019-02-27T20:14:11.347Z,5.15
2019-02-27T20:17:13.092Z,5.83
2019-02-27T20:20:15.812Z,5.15
2019-02-27T20:23:17.510Z,5.85
2019-02-27T20:26:21.030Z,5.15
2019-02-27T20:29:23.057Z,5.17
2019-02-27T20:32:28.379Z,5.40
2019-02-27T20:35:28.870Z,4.85
2019-02-27T20:42:03.985Z,5.60
2019-02-27T20:45:08.640Z,4.85
2019-02-27T20:48:10.089Z,4.78
2019-02-27T20:51:11.946Z,5.42
2019-02-27T20:54:13.613Z,5.60
2019-02-27T20:57:15.258Z,5.30
2019-02-27T21:00:17.613Z,5.25
2019-02-27T21:03:19.238Z,5.50
2019-02-27T21:06:21.118Z,5.60
2019-02-27T21:09:22.733Z,4.75
2019-02-27T21:12:24.342Z,5.10
2019-02-27T21:15:29.337Z,4.65
2019-02-27T21:18:32.594Z,5.47
2019-02-27T21:21:33.391Z,4.95
2019-02-27T21:24:37.309Z,4.80
2019-02-27T21:27:38.142Z,5.78
2019-02-27T21:30:39.722Z,5.10
2019-02-27T21:33:42.376Z,5.08
2019-02-27T21:36:44.878Z,4.20
2019-02-27T21:39:46.357Z,4.53
2019-02-27T21:42:50.882Z,4.50
2019-02-27T21:45:51.063Z,4.97
2019-02-27T21:48:52.567Z,4.45
2019-02-27T21:51:54.197Z,5.12
2019-02-27T21:54:55.762Z,5.30
2019-02-27T21:57:58.151Z,4.70
2019-02-27T22:01:00.423Z,4.92
2019-02-27T22:04:01.967Z,5.12
2019-02-27T22:07:05.037Z,4.95
2019-02-27T22:10:09.160Z,4.78
2019-02-27T22:13:10.936Z,5.03
2019-02-27T22:16:12.429Z,4.72
2019-02-27T22:19:13.899Z,5.67
2019-02-27T22:22:15.349Z,4.85
2019-02-27T22:25:17.232Z,4.87
2019-02-27T22:28:20.026Z,4.62
2019-02-27T22:31:22.144Z,4.62
2019-02-27T22:34:23.638Z,4.35
2019-02-27T22:37:25.122Z,4.50
2019-02-27T22:40:28.113Z,4.60
2019-02-27T22:43:29.596Z,4.50
2019-02-27T22:46:31.253Z,4.42
2019-02-27T22:49:32.899Z,4.87
2019-02-27T22:52:34.333Z,4.28
2019-02-27T22:55:36.418Z,4.90
2019-02-27T22:58:37.957Z,4.67
2019-02-27T23:01:50.433Z,4.53
2019-02-27T23:04:51.062Z,4.55
2019-02-27T23:07:52.917Z,4.65
2019-02-27T23:10:54.393Z,4.53
2019-02-27T23:13:55.845Z,4.97
2019-02-27T23:17:00.636Z,4.72
2019-02-27T23:20:00.551Z,4.30
2019-02-27T23:23:03.313Z,4.80
2019-02-27T23:26:04.946Z,4.28
2019-02-27T23:29:06.542Z,3.92
2019-02-27T23:32:07.975Z,4.25
2019-02-27T23:35:09.563Z,4.67
2019-02-27T23:38:11.370Z,4.28
2019-02-27T23:41:13.159Z,4.53
2019-02-27T23:44:14.562Z,5.00
2019-02-27T23:47:15.995Z,4.70
2019-02-27T23:50:17.409Z,4.78
2019-02-27T23:53:18.826Z,4.25
2019-02-27T23:56:21.211Z,4.40
2019-02-27T23:59:22.596Z,4.22
